createdAt,value
2023-03-17T00:02:05.780Z,14.33
2023-03-17T00:04:34.195Z,15.25
2023-03-17T00:07:02.393Z,15.00
2023-03-17T00:09:30.743Z,15.25
2023-03-17T00:11:58.790Z,15.00
2023-03-17T00:14:27.231Z,14.00
2023-03-17T00:16:55.911Z,15.50
2023-03-17T00:19:33.621Z,13.75
2023-03-17T00:22:03.101Z,14.00
2023-03-17T00:24:31.504Z,15.00
2023-03-17T00:26:59.875Z,15.33
2023-03-17T00:29:28.564Z,15.00
2023-03-17T00:31:57.889Z,14.25
2023-03-17T00:34:28.392Z,14.00
2023-03-17T00:36:56.595Z,14.25
2023-03-17T00:39:25.644Z,13.75
2023-03-17T00:41:55.897Z,14.00
2023-03-17T00:44:24.417Z,15.50
2023-03-17T00:46:54.005Z,14.00
2023-03-17T00:49:24.861Z,14.00
2023-03-17T00:51:53.241Z,15.00
2023-03-17T00:54:23.466Z,15.25
2023-03-17T00:56:52.696Z,15.25
2023-03-17T00:59:26.206Z,14.00
2023-03-17T01:01:55.516Z,15.25
2023-03-17T01:04:24.205Z,15.00
2023-03-17T01:06:53.205Z,15.50
2023-03-17T01:09:26.161Z,15.75
2023-03-17T01:11:55.873Z,15.75
2023-03-17T01:14:25.400Z,14.00
2023-03-17T01:16:53.610Z,14.00
2023-03-17T01:19:22.539Z,14.00
2023-03-17T01:21:51.047Z,14.75
2023-03-17T01:24:19.960Z,14.00
2023-03-17T01:26:48.074Z,15.00
2023-03-17T01:29:17.874Z,15.25
2023-03-17T01:31:46.428Z,15.50
2023-03-17T01:34:14.945Z,14.00
2023-03-17T01:36:43.984Z,15.50
2023-03-17T01:39:13.120Z,14.25
2023-03-17T01:41:41.302Z,14.50
2023-03-17T01:44:15.925Z,15.00
2023-03-17T01:46:45.826Z,15.00
2023-03-17T01:49:28.554Z,15.00
2023-03-17T01:52:00.403Z,15.50
2023-03-17T01:54:40.201Z,14.00
2023-03-17T01:57:13.827Z,14.25
2023-03-17T01:59:55.791Z,14.00
2023-03-17T02:02:31.075Z,14.00
2023-03-17T02:04:59.720Z,14.00
2023-03-17T02:07:28.547Z,14.00
2023-03-17T02:09:58.279Z,15.00
2023-03-17T02:12:28.054Z,15.50
2023-03-17T02:14:57.002Z,14.25
2023-03-17T02:17:28.604Z,14.00
2023-03-17T02:19:57.083Z,14.25
2023-03-17T02:22:25.531Z,12.50
2023-03-17T02:24:57.492Z,14.00
2023-03-17T02:27:37.791Z,13.75
2023-03-17T02:30:07.691Z,14.25
2023-03-17T02:32:37.160Z,13.75
2023-03-17T02:35:07.432Z,14.00
2023-03-17T02:37:39.105Z,12.50
2023-03-17T02:40:08.603Z,13.00
2023-03-17T02:42:39.735Z,14.50
2023-03-17T02:45:10.405Z,13.00
2023-03-17T02:47:40.223Z,13.00
2023-03-17T02:50:10.991Z,13.50
2023-03-17T02:52:39.172Z,14.33
2023-03-17T02:55:08.511Z,12.50
2023-03-17T02:57:36.633Z,14.25
2023-03-17T03:00:05.391Z,13.25
2023-03-17T03:02:33.591Z,14.00
2023-03-17T03:05:02.271Z,13.50
2023-03-17T03:07:30.479Z,14.00
2023-03-17T03:09:59.525Z,13.00
2023-03-17T03:12:27.622Z,13.25
2023-03-17T03:14:56.118Z,14.00
2023-03-17T03:17:24.299Z,14.00
2023-03-17T03:19:52.754Z,16.50
2023-03-17T03:22:20.930Z,14.25
2023-03-17T03:24:49.622Z,13.00
2023-03-17T03:27:17.938Z,12.75
2023-03-17T03:29:46.546Z,12.75
2023-03-17T03:32:14.637Z,13.00
2023-03-17T03:34:43.272Z,12.75
2023-03-17T03:37:11.845Z,13.75
2023-03-17T03:39:40.258Z,14.00
2023-03-17T03:42:08.897Z,12.50
2023-03-17T03:44:37.367Z,12.50
2023-03-17T03:47:05.595Z,13.25
2023-03-17T03:49:34.163Z,14.00
2023-03-17T03:52:02.204Z,14.00
2023-03-17T03:54:30.818Z,12.75
2023-03-17T03:56:58.813Z,12.50
2023-03-17T03:59:27.207Z,12.75
2023-03-17T04:01:55.363Z,13.00
2023-03-17T04:04:23.869Z,12.67
2023-03-17T04:06:52.225Z,12.50
2023-03-17T04:09:20.662Z,12.67
2023-03-17T04:11:48.721Z,12.50
2023-03-17T04:14:17.052Z,13.00
2023-03-17T04:16:45.245Z,14.00
2023-03-17T04:19:13.855Z,12.50
2023-03-17T04:21:42.472Z,12.50
2023-03-17T04:24:10.865Z,12.75
2023-03-17T04:26:39.429Z,13.00
2023-03-17T04:29:09.061Z,12.50
2023-03-17T04:31:37.863Z,13.25
2023-03-17T04:34:06.358Z,12.50
2023-03-17T04:36:35.241Z,14.00
2023-03-17T04:39:04.107Z,12.00
2023-03-17T04:41:32.531Z,12.67
2023-03-17T04:44:01.083Z,14.25
2023-03-17T04:46:29.204Z,12.75
2023-03-17T04:48:57.672Z,14.25
2023-03-17T04:51:25.883Z,12.50
2023-03-17T04:53:54.518Z,14.25
2023-03-17T04:56:22.654Z,14.25
2023-03-17T04:58:51.378Z,14.50
2023-03-17T05:01:19.598Z,12.75
2023-03-17T05:03:49.165Z,13.75
2023-03-17T05:06:17.274Z,14.00
2023-03-17T05:08:45.774Z,14.00
2023-03-17T05:11:14.462Z,14.25
2023-03-17T05:13:42.972Z,13.00
2023-03-17T05:16:11.205Z,13.00
2023-03-17T05:18:39.934Z,13.00
2023-03-17T05:21:08.297Z,13.75
2023-03-17T05:23:36.739Z,13.50
2023-03-17T05:26:05.590Z,14.00
2023-03-17T05:28:34.121Z,14.25
2023-03-17T05:31:02.736Z,12.50
2023-03-17T05:33:31.193Z,13.67
2023-03-17T05:35:59.372Z,14.25
2023-03-17T05:38:27.890Z,15.00
2023-03-17T05:40:55.931Z,13.50
2023-03-17T05:43:24.613Z,12.50
2023-03-17T05:45:53.302Z,12.50
2023-03-17T05:48:21.894Z,13.00
2023-03-17T05:50:50.063Z,13.75
2023-03-17T05:53:18.913Z,12.50
2023-03-17T05:55:48.202Z,12.33
2023-03-17T05:58:17.251Z,12.67
2023-03-17T06:00:45.464Z,12.50
2023-03-17T06:03:14.367Z,14.25
2023-03-17T06:05:42.675Z,14.00
2023-03-17T06:08:11.201Z,14.33
2023-03-17T06:10:39.211Z,12.67
2023-03-17T06:13:07.667Z,13.50
2023-03-17T06:15:37.138Z,13.00
2023-03-17T06:18:05.831Z,12.50
2023-03-17T06:20:34.215Z,14.00
2023-03-17T06:23:05.336Z,13.50
2023-03-17T06:25:35.968Z,12.75
2023-03-17T06:28:05.768Z,12.75
2023-03-17T06:30:35.295Z,12.75
2023-03-17T06:33:04.415Z,13.50
2023-03-17T06:35:33.618Z,12.67
2023-03-17T06:38:02.445Z,12.50
2023-03-17T06:40:32.179Z,12.00
2023-03-17T06:43:01.432Z,13.00
2023-03-17T06:45:30.160Z,13.00
2023-03-17T06:47:59.289Z,12.75
2023-03-17T06:50:27.568Z,12.75
2023-03-17T06:52:56.220Z,12.50
2023-03-17T06:55:24.369Z,12.75
2023-03-17T06:57:52.772Z,13.50
2023-03-17T07:00:22.701Z,12.75
2023-03-17T07:02:51.396Z,12.67
2023-03-17T07:05:19.533Z,12.33
2023-03-17T07:07:48.065Z,12.33
2023-03-17T07:10:17.495Z,13.50
2023-03-17T07:12:46.132Z,12.75
2023-03-17T07:15:14.841Z,12.25
2023-03-17T07:17:43.576Z,13.75
2023-03-17T07:20:12.071Z,13.67
2023-03-17T07:22:41.389Z,14.00
2023-03-17T07:25:10.050Z,12.67
2023-03-17T07:27:38.715Z,12.75
2023-03-17T07:30:07.675Z,13.25
2023-03-17T07:32:36.568Z,12.50
2023-03-17T07:35:05.773Z,13.75
2023-03-17T07:37:34.361Z,13.00
2023-03-17T07:40:02.527Z,13.50
2023-03-17T07:42:30.921Z,14.25
2023-03-17T07:44:59.082Z,13.00
2023-03-17T07:47:27.640Z,13.75
2023-03-17T07:49:55.942Z,14.25
2023-03-17T07:52:24.269Z,13.75
2023-03-17T07:54:52.437Z,12.67
2023-03-17T07:57:21.226Z,12.50
2023-03-17T07:59:49.906Z,13.25
2023-03-17T08:02:19.715Z,12.67
2023-03-17T08:04:48.067Z,14.33
2023-03-17T08:07:16.470Z,12.25
2023-03-17T08:09:44.677Z,12.00
2023-03-17T08:12:13.631Z,14.00
2023-03-17T08:14:41.775Z,12.50
2023-03-17T08:17:10.747Z,13.50
2023-03-17T08:19:38.950Z,13.00
2023-03-17T08:22:07.996Z,12.00
2023-03-17T08:24:37.574Z,12.75
2023-03-17T08:27:06.066Z,14.50
2023-03-17T08:29:34.215Z,13.75
2023-03-17T08:32:03.903Z,13.00
2023-03-17T08:34:31.998Z,13.00
2023-03-17T08:37:01.131Z,13.75
2023-03-17T08:39:30.073Z,14.25
2023-03-17T08:41:58.480Z,13.50
2023-03-17T08:44:26.643Z,13.75
2023-03-17T08:46:55.153Z,14.25
2023-03-17T08:49:23.415Z,13.00
2023-03-17T08:51:51.822Z,14.00
2023-03-17T08:54:19.982Z,14.00
2023-03-17T08:56:48.412Z,13.50
2023-03-17T08:59:16.999Z,12.75
2023-03-17T09:01:45.961Z,14.00
2023-03-17T09:04:15.063Z,13.75
2023-03-17T09:07:01.292Z,13.67
2023-03-17T09:09:32.275Z,13.75
2023-03-17T09:12:01.243Z,14.33
2023-03-17T09:14:30.566Z,14.50
2023-03-17T09:17:02.522Z,14.25
2023-03-17T09:19:32.593Z,14.00
2023-03-17T09:22:03.268Z,12.50
2023-03-17T09:24:31.390Z,14.00
2023-03-17T09:27:01.569Z,14.33
2023-03-17T09:29:29.608Z,13.75
2023-03-17T09:31:58.573Z,14.00
2023-03-17T09:34:26.974Z,14.00
2023-03-17T09:36:55.615Z,15.50
2023-03-17T09:39:24.335Z,14.00
2023-03-17T09:42:40.792Z,14.33
2023-03-17T09:45:20.550Z,13.50
2023-03-17T09:48:05.017Z,14.00
2023-03-17T09:50:55.231Z,15.00
2023-03-17T09:53:28.530Z,14.33
2023-03-17T09:55:58.917Z,13.75
2023-03-17T09:58:32.455Z,14.00
2023-03-17T10:01:01.902Z,14.00
2023-03-17T10:03:30.403Z,13.00
2023-03-17T10:06:44.815Z,13.67
2023-03-17T10:09:28.814Z,15.00
2023-03-17T10:12:27.325Z,13.75
2023-03-17T10:15:03.670Z,14.00
2023-03-17T10:17:42.281Z,13.75
2023-03-17T10:20:19.811Z,12.75
2023-03-17T10:23:01.907Z,14.25
2023-03-17T10:25:33.234Z,13.50
2023-03-17T10:28:32.686Z,13.75
2023-03-17T10:31:14.464Z,14.25
2023-03-17T10:33:44.365Z,14.00
2023-03-17T10:36:17.441Z,15.67
2023-03-17T10:38:54.419Z,14.50
2023-03-17T10:41:23.336Z,14.00
2023-03-17T10:43:51.999Z,17.50
2023-03-17T10:46:24.847Z,13.67
2023-03-17T10:49:12.992Z,15.00
2023-03-17T10:51:46.509Z,15.50
2023-03-17T10:54:18.785Z,15.25
2023-03-17T10:56:50.278Z,15.25
2023-03-17T10:59:21.633Z,14.00
2023-03-17T11:01:54.258Z,15.25
2023-03-17T11:04:33.500Z,15.25
2023-03-17T11:07:27.348Z,13.75
2023-03-17T11:10:00.440Z,15.00
2023-03-17T11:12:36.850Z,15.00
2023-03-17T11:15:08.193Z,15.25
2023-03-17T11:17:56.064Z,15.25
2023-03-17T11:20:42.375Z,15.00
2023-03-17T11:23:24.577Z,16.67
2023-03-17T11:26:11.998Z,15.00
2023-03-17T11:28:47.376Z,15.00
2023-03-17T11:31:20.163Z,15.25
2023-03-17T11:34:27.518Z,15.25
2023-03-17T11:37:21.976Z,15.00
2023-03-17T11:40:08.094Z,15.50
2023-03-17T11:42:57.736Z,15.25
2023-03-17T11:45:52.108Z,15.25
2023-03-17T11:48:47.645Z,14.00
2023-03-17T11:51:20.440Z,15.50
2023-03-17T11:53:51.577Z,15.25
2023-03-17T11:56:50.839Z,15.25
2023-03-17T11:59:36.404Z,16.00
2023-03-17T12:02:19.653Z,15.00
2023-03-17T12:04:57.491Z,16.00
2023-03-17T12:07:39.772Z,16.50
2023-03-17T12:10:13.776Z,17.00
2023-03-17T12:12:57.324Z,16.50
2023-03-17T12:15:53.239Z,16.33
2023-03-17T12:18:43.273Z,16.50
2023-03-17T12:21:27.427Z,15.00
2023-03-17T12:24:02.170Z,16.50
2023-03-17T12:26:55.427Z,16.50
2023-03-17T12:29:54.589Z,17.50
2023-03-17T12:32:33.819Z,17.75
2023-03-17T12:35:26.547Z,15.75
2023-03-17T12:37:56.513Z,15.25
2023-03-17T12:40:41.343Z,16.75
2023-03-17T12:43:51.383Z,16.50
2023-03-17T12:46:29.263Z,15.33
2023-03-17T12:49:14.603Z,17.00
2023-03-17T12:51:53.272Z,15.00
2023-03-17T12:54:39.775Z,15.50
2023-03-17T12:57:17.871Z,16.50
2023-03-17T12:59:51.114Z,16.50
2023-03-17T13:02:39.565Z,16.50
2023-03-17T13:05:10.254Z,16.00
2023-03-17T13:07:56.797Z,16.50
2023-03-17T13:10:40.338Z,16.50
2023-03-17T13:13:27.234Z,16.00
2023-03-17T13:15:58.623Z,16.25
2023-03-17T13:18:36.023Z,17.50
2023-03-17T13:21:04.296Z,16.50
2023-03-17T13:24:18.802Z,16.25
2023-03-17T13:27:02.191Z,17.33
2023-03-17T13:29:33.652Z,16.33
2023-03-17T13:32:32.313Z,16.00
2023-03-17T13:35:01.317Z,16.75
2023-03-17T13:37:36.066Z,18.00
2023-03-17T13:40:20.316Z,16.75
2023-03-17T13:43:14.057Z,16.25
2023-03-17T13:45:44.414Z,18.25
2023-03-17T13:48:30.506Z,17.00
2023-03-17T13:51:21.127Z,17.00
2023-03-17T13:53:55.850Z,17.00
2023-03-17T13:56:47.530Z,16.75
2023-03-17T13:59:23.454Z,16.00
2023-03-17T14:01:58.087Z,16.25
2023-03-17T14:04:35.849Z,16.25
2023-03-17T14:07:10.073Z,17.50
2023-03-17T14:09:40.108Z,16.50
2023-03-17T14:12:34.051Z,18.33
2023-03-17T14:15:12.822Z,16.75
2023-03-17T14:17:45.432Z,18.25
2023-03-17T14:20:13.480Z,18.00
2023-03-17T14:22:45.637Z,17.00
2023-03-17T14:25:22.788Z,18.00
2023-03-17T14:27:57.175Z,16.25
2023-03-17T14:30:31.372Z,18.25
2023-03-17T14:33:27.043Z,16.50
2023-03-17T14:35:58.663Z,16.50
2023-03-17T14:38:36.438Z,17.25
2023-03-17T14:41:06.774Z,16.00
2023-03-17T14:43:36.495Z,15.33
2023-03-17T14:46:15.153Z,15.00
2023-03-17T14:48:47.216Z,15.50
2023-03-17T14:51:28.258Z,15.00
2023-03-17T14:54:01.105Z,14.00
2023-03-17T14:56:37.818Z,15.25
2023-03-17T14:59:41.972Z,14.25
2023-03-17T15:02:22.557Z,14.00
2023-03-17T15:05:49.420Z,14.00
2023-03-17T15:08:30.940Z,14.00
2023-03-17T15:11:04.542Z,14.00
2023-03-17T15:13:37.995Z,13.75
2023-03-17T15:16:21.711Z,14.00
2023-03-17T15:18:58.387Z,14.00
2023-03-17T15:21:29.916Z,13.33
2023-03-17T15:23:58.089Z,13.00
2023-03-17T15:26:33.544Z,12.50
2023-03-17T15:29:01.733Z,13.25
2023-03-17T15:31:30.374Z,13.75
2023-03-17T15:33:58.544Z,12.75
2023-03-17T15:36:32.868Z,14.00
2023-03-17T15:39:02.778Z,14.00
2023-03-17T15:41:31.530Z,14.25
2023-03-17T15:43:59.532Z,14.25
2023-03-17T15:46:31.234Z,14.00
2023-03-17T15:49:00.125Z,14.00
2023-03-17T15:51:28.531Z,12.25
2023-03-17T15:53:56.620Z,14.33
2023-03-17T15:56:25.141Z,14.00
2023-03-17T15:58:53.258Z,13.50
2023-03-17T16:01:21.824Z,14.33
2023-03-17T16:03:50.086Z,14.00
2023-03-17T16:06:22.266Z,14.00
2023-03-17T16:08:51.160Z,14.00
2023-03-17T16:11:25.774Z,14.00
2023-03-17T16:14:00.201Z,14.33
2023-03-17T16:16:42.568Z,13.75
2023-03-17T16:19:21.465Z,14.00
2023-03-17T16:21:50.061Z,14.00
2023-03-17T16:24:20.248Z,13.50
2023-03-17T16:26:49.477Z,13.67
2023-03-17T16:29:18.896Z,14.00
2023-03-17T16:31:49.520Z,15.50
2023-03-17T16:34:22.627Z,14.25
2023-03-17T16:36:51.515Z,15.50
2023-03-17T16:39:22.598Z,14.00
2023-03-17T16:41:50.993Z,14.00
2023-03-17T16:44:20.631Z,14.00
2023-03-17T16:46:49.264Z,13.75
2023-03-17T16:49:20.009Z,14.00
2023-03-17T16:51:50.560Z,14.25
2023-03-17T16:54:18.905Z,14.00
2023-03-17T16:56:47.522Z,14.00
2023-03-17T16:59:21.345Z,14.00
2023-03-17T17:01:49.882Z,14.25
2023-03-17T17:04:18.191Z,14.25
2023-03-17T17:06:46.706Z,13.33
2023-03-17T17:09:15.096Z,13.75
2023-03-17T17:11:43.575Z,13.67
2023-03-17T17:14:11.862Z,13.50
2023-03-17T17:16:40.998Z,14.00
2023-03-17T17:19:16.747Z,14.25
2023-03-17T17:21:45.607Z,14.25
2023-03-17T17:24:14.606Z,14.00
2023-03-17T17:26:42.719Z,14.25
2023-03-17T17:29:11.275Z,14.00
2023-03-17T17:31:39.369Z,14.00
2023-03-17T17:34:08.125Z,13.67
2023-03-17T17:36:36.341Z,13.67
2023-03-17T17:39:04.811Z,14.00
2023-03-17T17:41:34.732Z,14.25
2023-03-17T17:44:03.776Z,14.00
2023-03-17T17:46:33.049Z,14.50
2023-03-17T17:49:01.622Z,13.00
2023-03-17T17:51:31.221Z,14.50
2023-03-17T17:53:59.718Z,13.75
2023-03-17T17:56:27.954Z,14.00
2023-03-17T17:58:56.578Z,14.00
2023-03-17T18:01:24.840Z,14.00
2023-03-17T18:03:53.480Z,14.25
2023-03-17T18:06:21.729Z,14.00
2023-03-17T18:08:50.518Z,15.25
2023-03-17T18:11:19.273Z,15.25
2023-03-17T18:13:47.809Z,14.25
2023-03-17T18:16:17.723Z,14.00
2023-03-17T18:18:47.388Z,14.50
2023-03-17T18:21:16.101Z,15.50
2023-03-17T18:23:47.596Z,14.50
2023-03-17T18:26:17.360Z,14.75
2023-03-17T18:28:46.097Z,14.00
2023-03-17T18:31:23.461Z,15.00
2023-03-17T18:33:55.449Z,15.00
2023-03-17T18:36:24.202Z,17.33
2023-03-17T18:38:52.831Z,16.00
2023-03-17T18:41:20.917Z,16.50
2023-03-17T18:43:49.488Z,19.00
2023-03-17T18:46:18.156Z,20.00
2023-03-17T18:48:46.646Z,19.00
2023-03-17T18:51:14.839Z,19.67
2023-03-17T18:53:43.338Z,20.75
2023-03-17T18:56:11.769Z,21.33
2023-03-17T18:58:40.529Z,20.00
2023-03-17T19:01:08.985Z,20.75
2023-03-17T19:03:37.769Z,21.50
2023-03-17T19:06:15.788Z,20.50
2023-03-17T19:08:45.194Z,19.00
2023-03-17T19:11:15.726Z,20.25
2023-03-17T19:13:45.746Z,21.67
2023-03-17T19:16:14.290Z,19.50
2023-03-17T19:18:43.116Z,21.50
2023-03-17T19:21:12.078Z,23.25
2023-03-17T19:23:41.719Z,22.00
2023-03-17T19:26:10.581Z,20.50
2023-03-17T19:28:39.276Z,21.67
2023-03-17T19:31:07.734Z,20.67
2023-03-17T19:33:37.092Z,22.00
2023-03-17T19:36:11.176Z,20.33
2023-03-17T19:38:40.298Z,20.00
2023-03-17T19:41:08.951Z,21.50
2023-03-17T19:43:41.098Z,20.00
2023-03-17T19:46:12.688Z,22.00
2023-03-17T19:48:42.151Z,22.00
2023-03-17T19:51:10.232Z,21.25
2023-03-17T19:53:38.892Z,20.25
2023-03-17T19:56:07.999Z,20.75
2023-03-17T19:58:36.524Z,19.00
2023-03-17T20:01:05.705Z,20.75
2023-03-17T20:03:35.518Z,22.00
2023-03-17T20:06:06.685Z,19.75
2023-03-17T20:08:36.453Z,20.75
2023-03-17T20:11:06.190Z,20.50
2023-03-17T20:13:35.824Z,19.50
2023-03-17T20:16:06.084Z,21.75
2023-03-17T20:18:35.356Z,19.00
2023-03-17T20:21:06.022Z,19.33
2023-03-17T20:23:36.945Z,20.00
2023-03-17T20:26:05.429Z,22.25
2023-03-17T20:28:34.028Z,21.25
2023-03-17T20:31:04.755Z,22.00
2023-03-17T20:33:33.656Z,19.50
2023-03-17T20:36:03.349Z,22.00
2023-03-17T20:38:39.091Z,20.50
2023-03-17T20:41:09.896Z,21.25
2023-03-17T20:43:38.714Z,20.00
2023-03-17T20:46:09.278Z,19.33
2023-03-17T20:48:37.965Z,20.25
2023-03-17T20:51:06.640Z,20.50
2023-03-17T20:53:35.192Z,21.50
2023-03-17T20:56:03.589Z,20.33
2023-03-17T20:58:32.151Z,21.75
2023-03-17T21:01:01.991Z,17.50
2023-03-17T21:03:30.500Z,21.00
2023-03-17T21:05:58.607Z,19.25
2023-03-17T21:08:26.921Z,19.50
2023-03-17T21:10:55.449Z,19.00
2023-03-17T21:13:23.900Z,20.50
2023-03-17T21:15:52.120Z,22.00
2023-03-17T21:18:20.667Z,20.50
2023-03-17T21:20:49.789Z,20.75
2023-03-17T21:23:18.154Z,21.00
2023-03-17T21:25:46.588Z,22.00
2023-03-17T21:28:15.452Z,21.33
2023-03-17T21:30:44.404Z,21.00
2023-03-17T21:33:13.600Z,22.75
2023-03-17T21:35:41.943Z,23.00
2023-03-17T21:38:10.787Z,21.75
2023-03-17T21:40:39.051Z,23.00
2023-03-17T21:43:08.116Z,19.00
2023-03-17T21:45:37.294Z,20.25
2023-03-17T21:48:05.859Z,19.25
2023-03-17T21:50:34.188Z,21.50
2023-03-17T21:53:03.366Z,20.25
2023-03-17T21:55:31.863Z,21.00
2023-03-17T21:58:00.399Z,18.75
2023-03-17T22:00:42.672Z,19.00
2023-03-17T22:03:13.559Z,19.75
2023-03-17T22:05:42.462Z,19.50
2023-03-17T22:08:10.880Z,17.67
2023-03-17T22:10:40.503Z,21.00
2023-03-17T22:13:09.054Z,19.25
2023-03-17T22:15:37.277Z,19.00
2023-03-17T22:18:06.190Z,20.25
2023-03-17T22:20:34.624Z,19.50
2023-03-17T22:23:03.488Z,20.00
2023-03-17T22:25:31.653Z,18.00
2023-03-17T22:28:00.094Z,21.67
2023-03-17T22:30:28.273Z,19.50
2023-03-17T22:32:56.711Z,19.33
2023-03-17T22:35:25.202Z,18.00
2023-03-17T22:37:53.577Z,18.00
2023-03-17T22:40:21.623Z,19.00
2023-03-17T22:42:50.026Z,20.00
2023-03-17T22:45:18.127Z,18.00
2023-03-17T22:47:46.718Z,17.75
2023-03-17T22:50:15.022Z,19.00
2023-03-17T22:52:44.067Z,18.50
2023-03-17T22:55:12.256Z,17.67
2023-03-17T22:57:40.939Z,20.50
2023-03-17T23:00:15.539Z,18.50
2023-03-17T23:02:46.616Z,19.50
2023-03-17T23:05:14.949Z,20.00
2023-03-17T23:07:51.527Z,21.67
2023-03-17T23:10:25.442Z,21.67
2023-03-17T23:12:54.006Z,19.00
2023-03-17T23:15:22.268Z,21.75
2023-03-17T23:17:51.080Z,21.00
2023-03-17T23:20:19.308Z,22.25
2023-03-17T23:22:48.432Z,20.33
2023-03-17T23:25:16.622Z,21.75
2023-03-17T23:27:46.938Z,21.00
2023-03-17T23:30:16.187Z,21.00
2023-03-17T23:32:45.702Z,20.67
2023-03-17T23:35:14.389Z,20.50
2023-03-17T23:37:43.136Z,20.50
2023-03-17T23:40:13.868Z,20.75
2023-03-17T23:42:42.338Z,20.75
2023-03-17T23:45:11.262Z,20.00
2023-03-17T23:47:40.063Z,22.00
2023-03-17T23:50:09.893Z,20.00
2023-03-17T23:52:38.779Z,20.50
2023-03-17T23:55:08.062Z,21.25
2023-03-17T23:57:37.934Z,19.00
